Almond, Wisconsin
Current Conditions -  °F | °C
As of 9:56 PM on Saturday 22 Nov 2014 (Local Time) from KY50 Reporting Station
Haze Haze  
Wind Chill:   Ceiling: 300
Heat Index:   Visibility: 2.5mi
Dew Point:   Wind: 0mph
Humidity: 100%   Direction: NA
Pressure: 29.74"   Gusts: NA
Location:  44.26°N, 89.41°W
Report Text: KY50 230356Z AUTO 00000KT 2 1/2SM BR BKN003 OVC006 05/05 A2974 RMK AO2 TSNO T00500050 CIG 002V006 SLP073
Loading
Personal Weather Stations






























Interactive Weather Map New forecast layout! Learn more

10-Day Weather Forecast

Advertisements
Track Severe Weather on mobile